createdAt,value
2018-02-08T00:00:21.740Z,129.73
2018-02-08T00:02:50.283Z,144.37
2018-02-08T00:05:19.113Z,135.10
2018-02-08T00:07:47.668Z,125.53
2018-02-08T00:10:16.225Z,138.00
2018-02-08T00:12:45.884Z,123.10
2018-02-08T00:15:14.436Z,111.67
2018-02-08T00:17:43.025Z,137.10
2018-02-08T00:20:12.392Z,126.43
2018-02-08T00:22:46.628Z,118.37
2018-02-08T00:25:15.455Z,156.73
2018-02-08T00:27:43.995Z,297.90
2018-02-08T00:30:13.315Z,295.13
2018-02-08T00:32:42.052Z,254.77
2018-02-08T00:35:10.599Z,224.43
2018-02-08T00:37:39.144Z,132.87
2018-02-08T00:40:08.788Z,114.90
2018-02-08T00:42:37.335Z,118.70
2018-02-08T00:45:06.645Z,117.47
2018-02-08T00:47:35.472Z,120.13
2018-02-08T00:50:04.034Z,119.30
2018-02-08T00:52:32.573Z,115.53
2018-02-08T00:55:01.172Z,112.97
2018-02-08T00:57:30.484Z,120.77
2018-02-08T00:59:59.796Z,116.97
2018-02-08T01:02:28.402Z,126.27
2018-02-08T01:04:56.949Z,118.93
2018-02-08T01:07:25.684Z,136.93
2018-02-08T01:09:54.564Z,142.83
2018-02-08T01:12:23.261Z,157.83
2018-02-08T01:14:51.839Z,154.57
2018-02-08T01:17:20.839Z,140.50
2018-02-08T01:19:49.516Z,166.33
2018-02-08T01:22:18.166Z,154.37
2018-02-08T01:24:47.256Z,145.67
2018-02-08T01:27:16.704Z,129.33
2018-02-08T01:29:45.344Z,171.20
2018-02-08T01:32:14.998Z,151.77
2018-02-08T01:34:43.684Z,163.60
2018-02-08T01:37:12.322Z,165.23
2018-02-08T01:39:42.799Z,142.33
2018-02-08T01:42:11.375Z,151.20
2018-02-08T01:44:40.061Z,158.50
2018-02-08T01:47:09.263Z,120.37
2018-02-08T01:49:46.860Z,109.13
2018-02-08T01:52:15.739Z,150.53
2018-02-08T01:54:45.964Z,134.57
2018-02-08T01:57:14.508Z,105.93
2018-02-08T01:59:43.197Z,120.47
2018-02-08T02:02:11.744Z,77.27
2018-02-08T02:04:40.298Z,100.83
2018-02-08T02:07:09.658Z,65.87
2018-02-08T02:09:38.963Z,60.20
2018-02-08T02:12:08.267Z,68.43
2018-02-08T02:14:37.760Z,66.80
2018-02-08T02:17:07.072Z,52.97
2018-02-08T02:19:35.639Z,48.83
2018-02-08T02:22:05.001Z,59.10
2018-02-08T02:24:33.549Z,49.13
2018-02-08T02:27:02.088Z,51.30
2018-02-08T02:29:30.802Z,43.97
2018-02-08T02:31:59.365Z,43.23
2018-02-08T02:34:28.675Z,46.03
2018-02-08T02:36:58.324Z,52.30
2018-02-08T02:39:26.933Z,42.87
2018-02-08T02:41:55.479Z,39.93
2018-02-08T02:44:24.080Z,38.73
2018-02-08T02:46:52.627Z,35.63
2018-02-08T02:49:21.944Z,29.23
2018-02-08T02:51:50.530Z,27.57
2018-02-08T02:54:19.108Z,27.93
2018-02-08T02:56:47.652Z,27.07
2018-02-08T02:59:16.503Z,30.17
2018-02-08T03:01:45.044Z,29.80
2018-02-08T03:04:14.352Z,31.63
2018-02-08T03:06:43.971Z,41.63
2018-02-08T03:09:12.511Z,34.27
2018-02-08T03:11:41.066Z,36.80
2018-02-08T03:14:09.844Z,44.07
2018-02-08T03:16:38.388Z,36.23
2018-02-08T03:19:07.696Z,35.73
2018-02-08T03:21:37.052Z,43.37
2018-02-08T03:24:05.596Z,39.33
2018-02-08T03:26:34.139Z,44.20
2018-02-08T03:29:03.563Z,47.03
2018-02-08T03:31:32.130Z,59.43
2018-02-08T03:34:01.423Z,48.50
2018-02-08T03:36:30.159Z,45.40
2018-02-08T03:38:58.704Z,52.43
2018-02-08T03:41:28.012Z,53.70
2018-02-08T03:43:57.479Z,55.70
2018-02-08T03:46:26.024Z,54.10
2018-02-08T03:48:54.592Z,54.93
2018-02-08T03:51:23.418Z,80.37
2018-02-08T03:53:51.956Z,59.83
2018-02-08T03:56:20.500Z,61.67
2018-02-08T03:58:49.092Z,58.23
2018-02-08T04:01:17.640Z,61.97
2018-02-08T04:03:46.179Z,56.60
2018-02-08T04:06:15.534Z,50.20
2018-02-08T04:08:44.076Z,62.40
2018-02-08T04:11:12.621Z,57.33
2018-02-08T04:13:41.203Z,53.90
2018-02-08T04:16:09.740Z,74.03
2018-02-08T04:18:38.292Z,69.20
2018-02-08T04:21:07.760Z,64.70
2018-02-08T04:23:36.299Z,76.13
2018-02-08T04:26:04.839Z,65.33
2018-02-08T04:28:33.580Z,51.90
2018-02-08T04:31:02.128Z,61.67
2018-02-08T04:33:31.432Z,62.80
2018-02-08T04:36:00.897Z,52.70
2018-02-08T04:38:47.341Z,41.80
2018-02-08T04:41:34.612Z,40.97
2018-02-08T04:44:23.744Z,48.70
2018-02-08T04:50:08.240Z,34.27
2018-02-08T04:52:37.152Z,42.03
2018-02-08T04:55:05.698Z,41.07
2018-02-08T04:57:34.239Z,49.73
2018-02-08T05:00:03.048Z,33.50
2018-02-08T05:02:32.379Z,33.30
2018-02-08T05:05:00.928Z,36.27
2018-02-08T05:07:30.428Z,38.23
2018-02-08T05:09:59.747Z,33.50
2018-02-08T05:12:28.286Z,30.30
2018-02-08T05:14:56.984Z,30.20
2018-02-08T05:17:25.533Z,32.07
2018-02-08T05:19:54.081Z,29.87
2018-02-08T05:22:23.549Z,33.43
2018-02-08T05:24:52.091Z,26.50
2018-02-08T05:27:20.690Z,23.77
2018-02-08T05:29:49.684Z,28.47
2018-02-08T05:32:18.224Z,35.17
2018-02-08T05:34:47.532Z,34.87
2018-02-08T05:37:16.356Z,25.70
2018-02-08T05:39:44.903Z,26.67
2018-02-08T05:42:13.448Z,25.47
2018-02-08T05:44:42.144Z,27.07
2018-02-08T05:47:10.688Z,30.97
2018-02-08T05:49:39.248Z,25.33
2018-02-08T05:52:07.835Z,25.60
2018-02-08T05:54:36.412Z,27.30
2018-02-08T05:57:04.967Z,38.63
2018-02-08T05:59:33.750Z,41.80
2018-02-08T06:02:02.300Z,42.77
2018-02-08T06:04:30.850Z,37.43
2018-02-08T06:06:59.545Z,42.07
2018-02-08T06:09:28.088Z,38.47
2018-02-08T06:11:57.156Z,31.97
2018-02-08T06:14:26.948Z,49.10
2018-02-08T06:16:55.496Z,32.37
2018-02-08T06:19:24.044Z,32.10
2018-02-08T06:21:53.407Z,49.07
2018-02-08T06:24:21.961Z,47.63
2018-02-08T06:26:50.535Z,41.93
2018-02-08T06:29:19.137Z,36.33
2018-02-08T06:31:47.759Z,39.90
2018-02-08T06:34:17.079Z,42.60
2018-02-08T06:36:46.535Z,40.30
2018-02-08T06:39:15.085Z,37.23
2018-02-08T06:41:43.636Z,41.00
2018-02-08T06:44:13.160Z,32.70
2018-02-08T06:46:42.476Z,37.37
2018-02-08T06:49:11.031Z,34.90
2018-02-08T06:51:40.387Z,32.90
2018-02-08T06:54:08.937Z,38.17
2018-02-08T06:56:37.483Z,34.87
2018-02-08T06:59:07.983Z,30.77
2018-02-08T07:01:36.533Z,24.23
2018-02-08T07:04:05.080Z,26.00
2018-02-08T07:06:34.556Z,23.47
2018-02-08T07:09:05.174Z,27.57
2018-02-08T07:11:33.720Z,28.33
2018-02-08T07:14:03.253Z,22.77
2018-02-08T07:16:31.804Z,25.70
2018-02-08T07:19:01.116Z,20.70
2018-02-08T07:21:30.041Z,31.33
2018-02-08T07:23:58.587Z,21.97
2018-02-08T07:26:27.122Z,25.47
2018-02-08T07:28:56.008Z,17.63
2018-02-08T07:31:24.556Z,18.93
2018-02-08T07:33:53.109Z,18.10
2018-02-08T07:36:22.471Z,20.60
2018-02-08T07:38:51.022Z,16.30
2018-02-08T07:41:19.575Z,14.53
2018-02-08T07:43:49.048Z,17.10
2018-02-08T07:46:17.600Z,18.80
2018-02-08T07:48:46.148Z,15.43
2018-02-08T07:51:15.909Z,16.10
2018-02-08T07:53:44.456Z,17.90
2018-02-08T07:56:13.006Z,13.77
2018-02-08T07:58:45.735Z,12.43
2018-02-08T08:01:14.280Z,12.40
2018-02-08T08:03:43.608Z,15.70
2018-02-08T08:06:12.329Z,15.30
2018-02-08T08:08:40.884Z,14.13
2018-02-08T08:11:09.437Z,14.90
2018-02-08T08:13:38.905Z,14.70
2018-02-08T08:16:07.880Z,12.83
2018-02-08T08:18:36.436Z,9.63
2018-02-08T08:21:05.161Z,10.33
2018-02-08T08:23:33.717Z,16.60
2018-02-08T08:26:02.272Z,14.67
2018-02-08T08:28:31.676Z,15.27
2018-02-08T08:31:01.032Z,17.80
2018-02-08T08:33:29.576Z,11.30
2018-02-08T08:35:58.509Z,11.03
2018-02-08T08:38:27.065Z,10.40
2018-02-08T08:40:55.612Z,8.47
2018-02-08T08:43:24.977Z,11.97
2018-02-08T08:45:53.533Z,11.27
2018-02-08T08:48:22.076Z,8.50
2018-02-08T08:50:51.649Z,10.97
2018-02-08T08:53:20.205Z,7.07
2018-02-08T08:55:48.760Z,6.70
2018-02-08T08:58:18.418Z,14.10
2018-02-08T09:00:46.979Z,8.33
2018-02-08T09:03:15.531Z,7.53
2018-02-08T09:05:44.173Z,6.83
2018-02-08T09:08:12.729Z,8.30
2018-02-08T09:10:41.286Z,10.63
2018-02-08T09:13:10.137Z,12.43
2018-02-08T09:15:38.704Z,8.40
2018-02-08T09:18:07.252Z,11.13
2018-02-08T09:20:35.848Z,9.43
2018-02-08T09:23:04.405Z,9.07
2018-02-08T09:25:33.726Z,8.73
2018-02-08T09:28:02.648Z,10.10
2018-02-08T09:30:31.209Z,6.93
2018-02-08T09:32:59.764Z,6.10
2018-02-08T09:35:28.701Z,6.47
2018-02-08T09:37:57.250Z,5.87
2018-02-08T09:40:25.803Z,6.70
2018-02-08T09:42:55.280Z,7.60
2018-02-08T09:45:23.836Z,7.23
2018-02-08T09:47:52.393Z,6.43
2018-02-08T09:50:21.946Z,9.97
2018-02-08T09:52:50.504Z,5.97
2018-02-08T09:55:19.060Z,8.33
2018-02-08T09:57:48.432Z,6.43
2018-02-08T10:00:16.993Z,7.20
2018-02-08T10:02:45.550Z,8.27
2018-02-08T10:05:14.473Z,8.23
2018-02-08T10:07:43.784Z,9.17
2018-02-08T10:10:12.336Z,8.20
2018-02-08T10:12:41.243Z,17.20
2018-02-08T10:15:09.793Z,7.10
2018-02-08T10:17:39.132Z,8.13
2018-02-08T10:20:08.129Z,6.30
2018-02-08T10:22:36.785Z,5.97
2018-02-08T10:25:05.335Z,11.90
2018-02-08T10:27:34.748Z,5.83
2018-02-08T10:30:04.101Z,7.37
2018-02-08T10:32:32.651Z,6.43
2018-02-08T10:35:01.263Z,78.77
2018-02-08T10:37:29.850Z,17.20
2018-02-08T10:39:58.403Z,6.47
2018-02-08T10:42:27.290Z,5.07
2018-02-08T10:44:55.843Z,5.83
2018-02-08T10:47:25.166Z,28.80
2018-02-08T10:49:53.997Z,7.23
2018-02-08T10:52:22.551Z,7.47
2018-02-08T10:54:51.157Z,19.27
2018-02-08T10:57:19.951Z,5.77
2018-02-08T10:59:48.505Z,9.73
2018-02-08T11:02:17.064Z,66.73
2018-02-08T11:04:45.815Z,22.00
2018-02-08T11:07:14.373Z,13.17
2018-02-08T11:09:42.928Z,15.40
2018-02-08T11:12:11.536Z,19.53
2018-02-08T11:14:40.083Z,12.33
2018-02-08T11:17:09.401Z,15.37
2018-02-08T11:19:38.023Z,25.60
2018-02-08T11:22:06.583Z,24.63
2018-02-08T11:24:35.136Z,32.10
2018-02-08T11:27:04.694Z,28.03
2018-02-08T11:29:33.244Z,8.63
2018-02-08T11:32:01.800Z,11.37
2018-02-08T11:34:31.168Z,10.73
2018-02-08T11:36:59.703Z,12.63
2018-02-08T11:39:28.300Z,12.50
2018-02-08T11:41:57.009Z,10.77
2018-02-08T11:44:25.561Z,6.97
2018-02-08T11:46:54.112Z,11.00
2018-02-08T11:49:23.681Z,7.47
2018-02-08T11:51:52.243Z,6.80
2018-02-08T11:54:20.836Z,53.37
2018-02-08T11:56:50.304Z,23.57
2018-02-08T11:59:18.841Z,15.63
2018-02-08T12:01:47.403Z,13.60
2018-02-08T12:04:16.209Z,13.93
2018-02-08T12:06:44.760Z,9.37
2018-02-08T12:09:13.401Z,10.90
2018-02-08T12:11:42.775Z,8.90
2018-02-08T12:14:12.108Z,18.03
2018-02-08T12:16:40.673Z,12.20
2018-02-08T12:19:10.042Z,9.73
2018-02-08T12:21:38.609Z,13.97
2018-02-08T12:24:07.160Z,12.43
2018-02-08T12:26:36.725Z,12.77
2018-02-08T12:29:05.293Z,8.87
2018-02-08T12:31:33.857Z,33.20
2018-02-08T12:34:02.469Z,8.27
2018-02-08T12:36:31.031Z,7.17
2018-02-08T12:39:00.396Z,14.87
2018-02-08T12:41:29.872Z,19.33
2018-02-08T12:43:58.429Z,7.03
2018-02-08T12:46:26.988Z,13.27
2018-02-08T12:48:55.704Z,17.43
2018-02-08T12:51:24.273Z,9.03
2018-02-08T12:53:53.626Z,12.43
2018-02-08T12:56:22.412Z,11.13
2018-02-08T12:58:50.984Z,12.93
2018-02-08T13:01:20.308Z,13.07
2018-02-08T13:03:48.915Z,13.70
2018-02-08T13:06:17.479Z,8.47
2018-02-08T13:08:46.033Z,8.90
2018-02-08T13:11:15.405Z,15.13
2018-02-08T13:13:43.964Z,8.73
2018-02-08T13:16:12.524Z,16.60
2018-02-08T13:18:42.012Z,12.77
2018-02-08T13:21:12.081Z,15.30
2018-02-08T13:23:40.665Z,11.37
2018-02-08T13:26:09.581Z,7.87
2018-02-08T13:28:38.140Z,8.43
2018-02-08T13:31:06.732Z,11.83
2018-02-08T13:33:35.380Z,9.63
2018-02-08T13:36:03.986Z,12.23
2018-02-08T13:38:32.540Z,16.13
2018-02-08T13:41:01.280Z,15.80
2018-02-08T13:43:29.840Z,15.03
2018-02-08T13:45:58.468Z,20.47
2018-02-08T13:48:27.927Z,22.50
2018-02-08T13:51:01.629Z,12.93
2018-02-08T13:56:36.808Z,12.07
2018-02-08T13:59:11.269Z,12.77
2018-02-08T14:01:43.223Z,17.57
2018-02-08T14:04:11.864Z,11.53
2018-02-08T14:06:40.445Z,15.10
2018-02-08T14:09:09.004Z,16.33
2018-02-08T14:11:37.624Z,15.30
2018-02-08T14:14:06.954Z,12.43
2018-02-08T14:16:35.519Z,13.60
2018-02-08T14:19:04.282Z,21.07
2018-02-08T14:21:32.845Z,29.50
2018-02-08T14:24:02.168Z,13.73
2018-02-08T14:26:31.104Z,11.60
2018-02-08T14:28:59.669Z,31.23
2018-02-08T14:31:28.236Z,22.87
2018-02-08T14:33:57.028Z,15.03
2018-02-08T14:36:26.348Z,16.13
2018-02-08T14:38:54.904Z,17.70
2018-02-08T14:41:23.607Z,18.73
2018-02-08T14:43:52.177Z,14.00
2018-02-08T14:46:20.749Z,17.43
2018-02-08T14:48:49.466Z,17.10
2018-02-08T14:51:18.028Z,17.83
2018-02-08T14:53:46.584Z,23.33
2018-02-08T14:56:15.375Z,14.43
2018-02-08T14:58:43.944Z,15.07
2018-02-08T15:01:13.264Z,36.53
2018-02-08T15:03:41.970Z,18.23
2018-02-08T15:06:11.300Z,21.07
2018-02-08T15:08:39.848Z,25.23
2018-02-08T15:11:09.320Z,24.73
2018-02-08T15:13:38.648Z,15.73
2018-02-08T15:16:07.196Z,30.57
2018-02-08T15:18:36.592Z,25.87
2018-02-08T15:21:05.929Z,36.57
2018-02-08T15:23:34.476Z,36.80
2018-02-08T15:26:03.111Z,27.83
2018-02-08T15:28:31.683Z,21.53
2018-02-08T15:31:00.240Z,18.43
2018-02-08T15:33:28.852Z,27.57
2018-02-08T15:35:57.423Z,18.93
2018-02-08T15:38:25.975Z,32.63
2018-02-08T15:40:54.836Z,28.23
2018-02-08T15:43:23.389Z,38.93
2018-02-08T15:45:51.972Z,38.30
2018-02-08T15:48:20.854Z,41.93
2018-02-08T15:50:49.417Z,27.57
2018-02-08T15:53:17.976Z,19.97
2018-02-08T15:55:46.592Z,45.67
2018-02-08T15:58:15.164Z,72.60
2018-02-08T16:00:43.748Z,27.73
2018-02-08T16:03:13.228Z,49.50
2018-02-08T16:05:42.568Z,53.13
2018-02-08T16:08:11.124Z,35.97
2018-02-08T16:10:39.880Z,55.70
2018-02-08T16:13:08.500Z,46.27
2018-02-08T16:15:37.817Z,55.43
2018-02-08T16:18:06.536Z,193.17
2018-02-08T16:20:35.108Z,96.20
2018-02-08T16:23:04.433Z,77.43
2018-02-08T16:25:33.163Z,159.80
2018-02-08T16:28:01.722Z,139.20
2018-02-08T16:30:30.284Z,119.13
2018-02-08T16:32:59.666Z,123.37
2018-02-08T16:35:29.020Z,120.23
2018-02-08T16:37:57.649Z,207.50
2018-02-08T16:40:26.493Z,414.17
2018-02-08T16:42:55.066Z,371.80
2018-02-08T16:45:23.634Z,372.37
2018-02-08T16:47:52.360Z,297.60
2018-02-08T16:50:22.457Z,246.47
2018-02-08T16:52:51.088Z,222.60
2018-02-08T16:55:19.809Z,200.37
2018-02-08T16:57:48.400Z,195.33
2018-02-08T17:00:17.031Z,172.57
2018-02-08T17:02:45.780Z,183.83
2018-02-08T17:05:14.351Z,204.80
2018-02-08T17:07:42.924Z,211.50
2018-02-08T17:10:12.489Z,229.97
2018-02-08T17:12:41.099Z,304.60
2018-02-08T17:15:09.667Z,311.40
2018-02-08T17:17:38.386Z,279.33
2018-02-08T17:20:06.962Z,283.80
2018-02-08T17:22:36.430Z,274.93
2018-02-08T17:25:05.483Z,237.17
2018-02-08T17:27:34.961Z,261.63
2018-02-08T17:30:04.378Z,282.93
2018-02-08T17:32:33.406Z,277.33
2018-02-08T17:35:01.996Z,300.33
2018-02-08T17:37:31.383Z,391.53
2018-02-08T17:40:00.016Z,277.37
2018-02-08T17:42:28.580Z,352.97
2018-02-08T17:44:57.912Z,416.97
2018-02-08T17:47:26.533Z,330.33
2018-02-08T17:49:55.382Z,330.23
2018-02-08T17:52:23.975Z,334.00
2018-02-08T17:54:57.721Z,369.97
2018-02-08T17:57:26.283Z,374.80
2018-02-08T17:59:54.892Z,379.57
2018-02-08T18:02:23.501Z,407.53
2018-02-08T18:04:52.841Z,404.17
2018-02-08T18:07:21.548Z,387.73
2018-02-08T18:09:50.120Z,414.33
2018-02-08T18:12:18.695Z,425.63
2018-02-08T18:14:47.308Z,418.97
2018-02-08T18:17:16.648Z,417.03
2018-02-08T18:19:45.214Z,370.47
2018-02-08T18:22:13.946Z,329.70
2018-02-08T18:24:42.531Z,303.53
2018-02-08T18:27:11.084Z,290.70
2018-02-08T18:29:39.775Z,300.13
2018-02-08T18:32:08.391Z,313.47
2018-02-08T18:34:36.952Z,322.57
2018-02-08T18:37:05.852Z,316.83
2018-02-08T18:39:34.408Z,283.50
2018-02-08T18:42:02.977Z,327.20
2018-02-08T18:44:32.029Z,303.93
2018-02-08T18:47:01.351Z,339.77
2018-02-08T18:49:30.929Z,361.57
2018-02-08T18:51:59.638Z,400.60
2018-02-08T18:54:29.249Z,357.33
2018-02-08T18:56:58.648Z,140.97
2018-02-08T18:59:28.239Z,87.33
2018-02-08T19:01:56.807Z,89.63
2018-02-08T19:04:25.373Z,81.83
2018-02-08T19:06:54.124Z,69.33
2018-02-08T19:09:23.450Z,118.97
2018-02-08T19:11:52.934Z,141.80
2018-02-08T19:14:21.771Z,150.20
2018-02-08T19:16:50.356Z,234.77
2018-02-08T19:19:18.929Z,328.20
2018-02-08T19:21:47.595Z,293.60
2018-02-08T19:24:16.153Z,237.90
2018-02-08T19:26:44.713Z,112.13
2018-02-08T19:29:14.277Z,120.50
2018-02-08T19:31:43.608Z,112.07
2018-02-08T19:34:12.168Z,102.07
2018-02-08T19:36:41.723Z,107.70
2018-02-08T19:39:10.651Z,131.00
2018-02-08T19:41:39.980Z,112.37
2018-02-08T19:44:08.600Z,91.67
2018-02-08T19:46:37.925Z,118.97
2018-02-08T19:49:06.609Z,113.60
2018-02-08T19:51:35.487Z,121.77
2018-02-08T19:54:04.049Z,120.50
2018-02-08T19:56:32.634Z,94.93
2018-02-08T19:59:01.246Z,87.63
2018-02-08T20:01:29.814Z,78.37
2018-02-08T20:03:58.374Z,76.67
2018-02-08T20:06:27.121Z,66.83
2018-02-08T20:08:56.513Z,59.53
2018-02-08T20:11:25.079Z,41.80
2018-02-08T20:13:54.062Z,39.17
2018-02-08T20:16:22.692Z,174.07
2018-02-08T20:18:52.008Z,64.63
2018-02-08T20:21:20.901Z,91.80
2018-02-08T20:23:50.236Z,52.07
2018-02-08T20:26:18.789Z,60.03
2018-02-08T20:28:47.400Z,47.63
2018-02-08T20:31:15.988Z,50.70
2018-02-08T20:33:44.568Z,41.07
2018-02-08T20:36:13.569Z,146.43
2018-02-08T20:38:42.137Z,77.97
2018-02-08T20:41:10.719Z,337.87
2018-02-08T20:43:39.497Z,97.10
2018-02-08T20:46:08.057Z,130.37
2018-02-08T20:48:36.637Z,109.37
2018-02-08T20:51:06.150Z,27.70
2018-02-08T20:53:34.708Z,43.73
2018-02-08T20:56:04.037Z,57.53
2018-02-08T20:58:32.857Z,72.60
2018-02-08T21:01:01.417Z,67.67
2018-02-08T21:03:29.974Z,52.57
2018-02-08T21:05:59.370Z,67.47
2018-02-08T21:08:28.685Z,96.20
2018-02-08T21:10:58.004Z,104.93
2018-02-08T21:13:26.659Z,103.20
2018-02-08T21:15:55.984Z,114.33
2018-02-08T21:18:24.540Z,162.60
2018-02-08T21:20:54.318Z,186.13
2018-02-08T21:23:22.877Z,155.57
2018-02-08T21:25:51.442Z,161.80
2018-02-08T21:28:20.061Z,168.87
2018-02-08T21:30:48.608Z,179.87
2018-02-08T21:33:17.170Z,188.23
2018-02-08T21:35:46.537Z,170.07
2018-02-08T21:38:15.100Z,189.13
2018-02-08T21:40:43.670Z,176.60
2018-02-08T21:43:12.583Z,183.40
2018-02-08T21:45:41.140Z,180.50
2018-02-08T21:48:09.711Z,170.57
2018-02-08T21:50:39.111Z,224.10
2018-02-08T21:53:07.669Z,198.47
2018-02-08T21:55:36.226Z,231.03
2018-02-08T21:58:04.930Z,277.67
2018-02-08T22:00:33.496Z,309.43
2018-02-08T22:03:02.073Z,294.50
2018-02-08T22:05:30.865Z,283.43
2018-02-08T22:07:59.425Z,284.23
2018-02-08T22:10:27.985Z,270.90
2018-02-08T22:12:56.742Z,258.67
2018-02-08T22:15:25.303Z,249.73
2018-02-08T22:17:53.869Z,252.17
2018-02-08T22:20:22.572Z,254.30
2018-02-08T22:22:51.131Z,256.23
2018-02-08T22:25:19.689Z,247.27
2018-02-08T22:27:49.444Z,228.63
2018-02-08T22:30:18.012Z,231.67
2018-02-08T22:32:46.576Z,256.00
2018-02-08T22:35:15.202Z,235.07
2018-02-08T22:37:43.776Z,225.90
2018-02-08T22:40:12.337Z,245.20
2018-02-08T22:42:41.080Z,320.33
2018-02-08T22:45:09.665Z,279.17
2018-02-08T22:47:38.996Z,252.30
2018-02-08T22:50:07.827Z,285.77
2018-02-08T22:52:36.800Z,285.53
2018-02-08T22:55:05.346Z,298.73
2018-02-08T22:57:34.819Z,284.03
2018-02-08T23:00:03.440Z,254.47
2018-02-08T23:02:32.755Z,291.57
2018-02-08T23:05:01.569Z,271.00
2018-02-08T23:07:30.130Z,242.43
2018-02-08T23:09:58.698Z,208.27
2018-02-08T23:12:27.309Z,193.50
2018-02-08T23:14:55.936Z,210.93
2018-02-08T23:17:24.515Z,227.43
2018-02-08T23:19:55.017Z,189.47
2018-02-08T23:22:23.568Z,189.07
2018-02-08T23:24:52.132Z,197.37
2018-02-08T23:27:21.504Z,189.47
2018-02-08T23:29:50.071Z,198.03
2018-02-08T23:32:18.713Z,188.33
2018-02-08T23:34:47.540Z,201.53
2018-02-08T23:37:16.091Z,193.77
2018-02-08T23:39:44.653Z,190.03
2018-02-08T23:42:14.020Z,195.63
2018-02-08T23:44:42.616Z,168.97
2018-02-08T23:47:12.684Z,162.53
2018-02-08T23:49:41.424Z,166.10
2018-02-08T23:52:09.984Z,148.27
2018-02-08T23:54:38.580Z,110.07
2018-02-08T23:57:07.282Z,102.80
2018-02-08T23:59:35.832Z,110.83
